Time,TemperatureF,DewpointF,PressureIn,WindDirection,WindDirectionDegrees,WindSpeedMPH,WindSpeedGustMPH,Humidity,HourlyPrecipIn,Conditions,Clouds,dailyrainin,SoftwareType,DateUTC
2013-06-09 00:09:00,65.7,65.1,30.01,SSW,202,2.2,-999.0,98,-99.99,,,0.00,Acu-Link.com,2013-06-09 04:09:00,
2013-06-09 00:24:00,65.7,65.1,30.02,SSW,202,2.7,-999.0,98,-99.99,,,0.00,Acu-Link.com,2013-06-09 04:24:00,
2013-06-09 00:39:00,65.7,65.1,30.01,SSE,157,2.7,-999.0,98,-99.99,,,0.00,Acu-Link.com,2013-06-09 04:39:00,
2013-06-09 00:54:00,65.5,64.9,30.01,WNW,292,1.7,-999.0,98,-99.99,,,0.00,Acu-Link.com,2013-06-09 04:54:00,
2013-06-09 01:09:00,65.1,64.5,30.02,SSW,202,1.7,-999.0,98,-99.99,,,0.00,Acu-Link.com,2013-06-09 05:09:00,
2013-06-09 01:24:00,65.5,64.9,30.03,SSE,157,3.2,-999.0,98,-99.99,,,0.00,Acu-Link.com,2013-06-09 05:24:00,
2013-06-09 01:39:00,65.5,64.9,30.03,SW,225,2.2,-999.0,98,-99.99,,,0.00,Acu-Link.com,2013-06-09 05:39:00,
2013-06-09 01:54:00,65.1,64.5,30.02,SSW,202,2.2,-999.0,98,-99.99,,,0.00,Acu-Link.com,2013-06-09 05:54:00,
2013-06-09 02:09:00,64.8,64.2,30.02,SSW,202,1.7,-999.0,98,-99.99,,,0.00,Acu-Link.com,2013-06-09 06:09:00,
2013-06-09 02:25:00,64.2,63.6,30.02,West,270,1.7,-999.0,98,-99.99,,,0.00,Acu-Link.com,2013-06-09 06:25:00,
2013-06-09 02:40:00,63.7,63.1,30.02,SSE,157,0.0,-999.0,98,-99.99,,,0.00,Acu-Link.com,2013-06-09 06:40:00,
2013-06-09 02:55:00,64.6,64.0,30.03,SSW,202,2.7,-999.0,98,-99.99,,,0.00,Acu-Link.com,2013-06-09 06:55:00,
2013-06-09 03:10:00,64.6,64.0,30.04,SW,225,1.7,-999.0,98,-99.99,,,0.00,Acu-Link.com,2013-06-09 07:10:00,
2013-06-09 03:25:00,64.0,63.4,30.04,South,180,0.0,-999.0,98,-99.99,,,0.00,Acu-Link.com,2013-06-09 07:25:00,
2013-06-09 03:40:00,63.7,63.1,30.04,SSW,202,0.0,-999.0,98,-99.99,,,0.00,Acu-Link.com,2013-06-09 07:40:00,
2013-06-09 03:55:00,63.5,62.9,30.04,SSE,157,0.0,-999.0,98,-99.99,,,0.00,Acu-Link.com,2013-06-09 07:55:00,
2013-06-09 04:10:00,63.1,62.5,30.04,ESE,112,0.0,-999.0,98,-99.99,,,0.00,Acu-Link.com,2013-06-09 08:10:00,
2013-06-09 04:26:00,62.8,62.2,30.05,East,90,0.0,-999.0,98,-99.99,,,0.00,Acu-Link.com,2013-06-09 08:26:00,
2013-06-09 04:41:00,62.6,62.0,30.04,SSW,202,0.0,-999.0,98,-99.99,,,0.00,Acu-Link.com,2013-06-09 08:41:00,
2013-06-09 04:56:00,62.4,61.8,30.05,SE,135,0.0,-999.0,98,-99.99,,,0.00,Acu-Link.com,2013-06-09 08:56:00,
2013-06-09 05:11:00,62.2,61.6,30.05,South,180,0.0,-999.0,98,-99.99,,,0.00,Acu-Link.com,2013-06-09 09:11:00,
2013-06-09 06:11:00,63.3,62.7,30.08,SSE,157,1.7,-999.0,98,-99.99,,,0.00,Acu-Link.com,2013-06-09 10:11:00,
2013-06-09 06:26:00,63.7,63.1,30.09,SSW,202,1.7,-999.0,98,-99.99,,,0.00,Acu-Link.com,2013-06-09 10:26:00,
2013-06-09 06:41:00,64.8,64.2,30.09,South,180,2.2,-999.0,98,-99.99,,,0.00,Acu-Link.com,2013-06-09 10:41:00,
2013-06-09 06:57:00,65.5,64.9,30.09,SSW,202,2.2,-999.0,98,-99.99,,,0.00,Acu-Link.com,2013-06-09 10:57:00,
2013-06-09 07:12:00,66.0,65.4,30.10,South,180,1.7,-999.0,98,-99.99,,,0.00,Acu-Link.com,2013-06-09 11:12:00,
2013-06-09 07:27:00,67.6,67.0,30.10,SSW,202,2.2,-999.0,98,-99.99,,,0.00,Acu-Link.com,2013-06-09 11:27:00,
2013-06-09 07:42:00,68.7,68.1,30.10,SSW,202,1.7,-999.0,98,-99.99,,,0.00,Acu-Link.com,2013-06-09 11:42:00,
2013-06-09 07:57:00,69.4,68.8,30.10,SSW,202,2.2,-999.0,98,-99.99,,,0.00,Acu-Link.com,2013-06-09 11:57:00,
2013-06-09 08:12:00,71.4,70.8,30.11,South,180,0.0,-999.0,98,-99.99,,,0.00,Acu-Link.com,2013-06-09 12:12:00,
2013-06-09 08:27:00,75.0,74.4,30.11,NNW,337,1.1,-999.0,98,-99.99,,,0.00,Acu-Link.com,2013-06-09 12:27:00,
2013-06-09 08:42:00,79.0,78.4,30.11,ESE,112,1.7,-999.0,98,-99.99,,,0.00,Acu-Link.com,2013-06-09 12:42:00,
2013-06-09 08:57:00,76.8,76.2,30.12,ENE,67,1.7,-999.0,98,-99.99,,,0.00,Acu-Link.com,2013-06-09 12:57:00,
2013-06-09 09:13:00,75.6,75.0,30.12,SE,135,1.7,-999.0,98,-99.99,,,0.00,Acu-Link.com,2013-06-09 13:13:00,
2013-06-09 09:28:00,74.3,73.7,30.12,NE,45,1.1,-999.0,98,-99.99,,,0.00,Acu-Link.com,2013-06-09 13:28:00,
2013-06-09 09:43:00,73.9,73.3,30.12,WSW,247,2.2,-999.0,98,-99.99,,,0.00,Acu-Link.com,2013-06-09 13:43:00,
2013-06-09 09:58:00,74.8,74.2,30.13,NNE,22,1.7,-999.0,98,-99.99,,,0.00,Acu-Link.com,2013-06-09 13:58:00,
2013-06-09 10:13:00,75.7,75.1,30.12,West,270,1.7,-999.0,98,-99.99,,,0.00,Acu-Link.com,2013-06-09 14:13:00,
2013-06-09 10:28:00,76.5,75.9,30.13,NE,45,1.1,-999.0,98,-99.99,,,0.00,Acu-Link.com,2013-06-09 14:28:00,
2013-06-09 10:43:00,76.6,76.0,30.13,NNE,22,2.2,-999.0,98,-99.99,,,0.00,Acu-Link.com,2013-06-09 14:43:00,
2013-06-09 10:58:00,76.5,73.3,30.13,NNE,22,2.7,-999.0,90,-99.99,,,0.00,Acu-Link.com,2013-06-09 14:58:00,
2013-06-09 11:13:00,77.9,74.7,30.13,West,270,1.7,-999.0,90,-99.99,,,0.00,Acu-Link.com,2013-06-09 15:13:00,
2013-06-09 11:29:00,78.4,74.5,30.13,East,90,1.7,-999.0,88,-99.99,,,0.00,Acu-Link.com,2013-06-09 15:29:00,
2013-06-09 11:44:00,80.1,76.2,30.12,WNW,292,0.0,-999.0,88,-99.99,,,0.00,Acu-Link.com,2013-06-09 15:44:00,
2013-06-09 11:59:00,79.2,69.8,30.12,WNW,292,1.7,-999.0,73,-99.99,,,0.00,Acu-Link.com,2013-06-09 15:59:00,
2013-06-09 12:14:00,82.4,73.3,30.12,ESE,112,2.2,-999.0,74,-99.99,,,0.00,Acu-Link.com,2013-06-09 16:14:00,
2013-06-09 12:29:00,81.9,69.4,30.11,NNW,337,1.7,-999.0,66,-99.99,,,0.00,Acu-Link.com,2013-06-09 16:29:00,
2013-06-09 12:44:00,82.2,71.0,30.11,NW,315,2.7,-999.0,69,-99.99,,,0.00,Acu-Link.com,2013-06-09 16:44:00,
2013-06-09 12:59:00,82.2,72.3,30.11,ENE,67,1.7,-999.0,72,-99.99,,,0.00,Acu-Link.com,2013-06-09 16:59:00,
2013-06-09 13:14:00,81.5,71.6,30.11,East,90,1.7,-999.0,72,-99.99,,,0.00,Acu-Link.com,2013-06-09 17:14:00,
2013-06-09 13:29:00,80.8,71.3,30.11,SSE,157,3.7,-999.0,73,-99.99,,,0.00,Acu-Link.com,2013-06-09 17:29:00,
2013-06-09 13:44:00,83.3,74.9,30.11,ENE,67,1.7,-999.0,76,-99.99,,,0.00,Acu-Link.com,2013-06-09 17:44:00,
2013-06-09 14:00:00,84.0,75.2,30.10,NE,45,1.7,-999.0,75,-99.99,,,0.00,Acu-Link.com,2013-06-09 18:00:00,
2013-06-09 14:15:00,82.8,75.6,30.10,South,180,2.7,-999.0,79,-99.99,,,0.00,Acu-Link.com,2013-06-09 18:15:00,
2013-06-09 14:30:00,84.6,77.7,30.09,East,90,1.7,-999.0,80,-99.99,,,0.00,Acu-Link.com,2013-06-09 18:30:00,
2013-06-09 14:45:00,84.0,76.4,30.09,NE,45,1.7,-999.0,78,-99.99,,,0.00,Acu-Link.com,2013-06-09 18:45:00,
2013-06-09 15:00:00,85.6,80.9,30.08,SSW,202,1.7,-999.0,86,-99.99,,,0.00,Acu-Link.com,2013-06-09 19:00:00,
2013-06-09 15:15:00,84.6,77.3,30.08,ESE,112,2.2,-999.0,79,-99.99,,,0.00,Acu-Link.com,2013-06-09 19:15:00,
2013-06-09 15:30:00,84.2,76.2,30.07,NE,45,2.7,-999.0,77,-99.99,,,0.00,Acu-Link.com,2013-06-09 19:30:00,
2013-06-09 15:45:00,81.9,76.9,30.07,WNW,292,2.2,-999.0,85,-99.99,,,0.00,Acu-Link.com,2013-06-09 19:45:00,
2013-06-09 16:00:00,82.8,76.0,30.06,NW,315,2.2,-999.0,80,-99.99,,,0.00,Acu-Link.com,2013-06-09 20:00:00,
2013-06-09 16:16:00,81.9,77.3,30.06,ESE,112,1.7,-999.0,86,-99.99,,,0.00,Acu-Link.com,2013-06-09 20:16:00,
2013-06-09 16:31:00,80.8,76.6,30.06,East,90,2.2,-999.0,87,-99.99,,,0.00,Acu-Link.com,2013-06-09 20:31:00,
2013-06-09 16:46:00,79.7,77.5,30.05,NW,315,1.7,-999.0,93,-99.99,,,0.00,Acu-Link.com,2013-06-09 20:46:00,
2013-06-09 17:01:00,78.4,76.2,30.05,West,270,2.7,-999.0,93,-99.99,,,0.00,Acu-Link.com,2013-06-09 21:01:00,
2013-06-09 17:31:00,78.6,78.0,30.05,South,180,2.2,-999.0,98,-99.99,,,0.00,Acu-Link.com,2013-06-09 21:31:00,
2013-06-09 17:46:00,78.6,78.0,30.05,NNE,22,3.7,-999.0,98,-99.99,,,0.00,Acu-Link.com,2013-06-09 21:46:00,
2013-06-09 18:01:00,78.1,77.2,30.05,East,90,3.2,-999.0,97,-99.99,,,0.00,Acu-Link.com,2013-06-09 22:01:00,
2013-06-09 18:16:00,79.0,78.4,30.05,NE,45,2.2,-999.0,98,-99.99,,,0.00,Acu-Link.com,2013-06-09 22:16:00,
2013-06-09 18:32:00,81.7,72.6,30.05,SSW,202,2.2,-999.0,74,-99.99,,,0.00,Acu-Link.com,2013-06-09 22:32:00,
2013-06-09 18:47:00,80.6,72.3,30.05,WSW,247,2.2,-999.0,76,-99.99,,,0.00,Acu-Link.com,2013-06-09 22:47:00,
2013-06-09 19:02:00,80.2,70.7,30.05,East,90,3.2,-999.0,73,-99.99,,,0.00,Acu-Link.com,2013-06-09 23:02:00,
2013-06-09 19:17:00,76.5,75.9,30.06,South,180,2.2,-999.0,98,-99.99,,,0.00,Acu-Link.com,2013-06-09 23:17:00,
2013-06-09 19:32:00,76.1,75.5,30.06,NE,45,2.2,-999.0,98,-99.99,,,0.00,Acu-Link.com,2013-06-09 23:32:00,
2013-06-09 19:47:00,74.5,73.9,30.07,West,270,1.7,-999.0,98,-99.99,,,0.00,Acu-Link.com,2013-06-09 23:47:00,
2013-06-09 20:02:00,72.1,71.5,30.07,SW,225,4.7,-999.0,98,-99.99,,,0.00,Acu-Link.com,2013-06-10 00:02:00,
2013-06-09 20:17:00,70.9,70.3,30.08,South,180,2.2,-999.0,98,-99.99,,,0.00,Acu-Link.com,2013-06-10 00:17:00,
2013-06-09 20:32:00,70.3,69.7,30.08,SSW,202,1.7,-999.0,98,-99.99,,,0.00,Acu-Link.com,2013-06-10 00:32:00,
2013-06-09 20:48:00,69.6,69.0,30.09,SW,225,0.0,-999.0,98,-99.99,,,0.00,Acu-Link.com,2013-06-10 00:48:00,
2013-06-09 21:03:00,69.1,68.5,30.08,South,180,0.0,-999.0,98,-99.99,,,0.00,Acu-Link.com,2013-06-10 01:03:00,
2013-06-09 21:18:00,68.4,67.8,30.09,SSE,157,1.1,-999.0,98,-99.99,,,0.00,Acu-Link.com,2013-06-10 01:18:00,
2013-06-09 21:33:00,67.5,66.9,30.09,WNW,292,0.0,-999.0,98,-99.99,,,0.00,Acu-Link.com,2013-06-10 01:33:00,
2013-06-09 21:48:00,67.3,66.7,30.09,ESE,112,0.0,-999.0,98,-99.99,,,0.00,Acu-Link.com,2013-06-10 01:48:00,
2013-06-09 22:03:00,67.1,66.5,30.09,NNE,22,0.0,-999.0,98,-99.99,,,0.00,Acu-Link.com,2013-06-10 02:03:00,
2013-06-09 22:18:00,67.5,66.9,30.09,SSW,202,0.0,-999.0,98,-99.99,,,0.00,Acu-Link.com,2013-06-10 02:18:00,
2013-06-09 22:33:00,67.1,66.5,30.08,SSW,202,1.7,-999.0,98,-99.99,,,0.00,Acu-Link.com,2013-06-10 02:33:00,
2013-06-09 22:48:00,66.7,66.1,30.08,ESE,112,0.0,-999.0,98,-99.99,,,0.00,Acu-Link.com,2013-06-10 02:48:00,
2013-06-09 23:04:00,66.7,66.1,30.08,NW,315,0.0,-999.0,98,-99.99,,,0.00,Acu-Link.com,2013-06-10 03:04:00,
2013-06-09 23:19:00,66.9,66.3,30.08,South,180,1.7,-999.0,98,-99.99,,,0.00,Acu-Link.com,2013-06-10 03:19:00,
2013-06-09 23:34:00,66.7,66.1,30.07,ESE,112,0.0,-999.0,98,-99.99,,,0.00,Acu-Link.com,2013-06-10 03:34:00,
2013-06-09 23:49:00,66.7,66.1,30.08,NE,45,0.0,-999.0,98,-99.99,,,0.00,Acu-Link.com,2013-06-10 03:49:00,